createdAt,value
2019-03-18T00:02:32.452Z,6.10
2019-03-18T00:05:13.891Z,5.28
2019-03-18T00:07:55.428Z,5.87
2019-03-18T00:10:37.080Z,6.15
2019-03-18T00:13:19.119Z,9.25
2019-03-18T00:16:00.445Z,7.87
2019-03-18T00:18:41.949Z,4.60
2019-03-18T00:21:22.656Z,5.25
2019-03-18T00:24:04.023Z,5.80
2019-03-18T00:26:45.311Z,6.05
2019-03-18T00:29:27.044Z,5.00
2019-03-18T00:32:07.852Z,4.97
2019-03-18T00:34:47.743Z,4.67
2019-03-18T00:43:26.579Z,6.05
2019-03-18T00:46:07.674Z,5.20
2019-03-18T00:48:50.743Z,5.50
2019-03-18T00:51:31.914Z,5.25
2019-03-18T00:54:13.685Z,7.28
2019-03-18T00:56:55.015Z,8.23
2019-03-18T00:59:36.770Z,5.28
2019-03-18T01:02:17.795Z,7.45
2019-03-18T01:04:58.840Z,4.45
2019-03-18T01:07:39.600Z,7.60
2019-03-18T01:10:20.508Z,7.92
2019-03-18T01:13:01.662Z,3.72
2019-03-18T01:15:43.526Z,5.80
2019-03-18T01:18:24.713Z,5.87
2019-03-18T01:21:06.278Z,4.00
2019-03-18T01:23:47.708Z,3.87
2019-03-18T01:26:28.965Z,6.47
2019-03-18T01:29:10.009Z,5.40
2019-03-18T01:31:51.077Z,6.62
2019-03-18T01:34:32.507Z,4.17
2019-03-18T01:37:13.265Z,5.05
2019-03-18T01:39:54.305Z,4.60
2019-03-18T01:42:35.778Z,3.85
2019-03-18T01:45:17.232Z,4.20
2019-03-18T01:47:59.104Z,4.20
2019-03-18T01:50:40.544Z,4.10
2019-03-18T01:53:20.216Z,3.87
2019-03-18T01:56:08.866Z,4.58
2019-03-18T02:01:53.026Z,4.83
2019-03-18T02:04:42.153Z,5.28
2019-03-18T02:07:30.744Z,5.20
2019-03-18T02:13:28.418Z,4.00
2019-03-18T02:16:17.455Z,3.87
2019-03-18T02:19:06.069Z,4.72
2019-03-18T02:21:54.638Z,4.03
2019-03-18T02:24:43.356Z,5.87
2019-03-18T02:27:32.168Z,7.62
2019-03-18T02:36:15.132Z,4.58
2019-03-18T02:39:24.109Z,7.28
2019-03-18T02:42:13.133Z,5.00
2019-03-18T02:44:54.075Z,5.12
2019-03-18T02:47:34.888Z,4.65
2019-03-18T02:50:16.161Z,4.33
2019-03-18T02:52:57.855Z,4.47
2019-03-18T02:55:39.360Z,5.65
2019-03-18T02:58:20.847Z,4.85
2019-03-18T03:01:02.356Z,4.53
2019-03-18T03:03:42.607Z,4.80
2019-03-18T03:06:31.457Z,4.10
2019-03-18T03:09:20.155Z,4.95
2019-03-18T03:12:08.765Z,4.70
2019-03-18T03:17:51.016Z,4.25
2019-03-18T03:20:54.281Z,5.92
2019-03-18T03:23:42.084Z,7.85
2019-03-18T03:26:20.775Z,5.22
2019-03-18T03:29:09.502Z,5.55
2019-03-18T03:31:58.429Z,6.67
2019-03-18T03:37:56.426Z,3.40
2019-03-18T03:46:46.300Z,4.50
2019-03-18T03:49:27.625Z,7.12
2019-03-18T03:52:09.068Z,5.60
2019-03-18T03:54:50.615Z,8.45
2019-03-18T03:57:32.117Z,6.53
2019-03-18T04:00:13.737Z,9.88
2019-03-18T04:06:14.455Z,7.25
2019-03-18T04:08:56.469Z,8.10
2019-03-18T04:11:37.860Z,6.00
2019-03-18T04:14:18.733Z,13.65
2019-03-18T04:17:02.496Z,7.80
2019-03-18T04:19:43.093Z,10.90
2019-03-18T04:22:24.484Z,10.53
2019-03-18T04:25:05.892Z,8.00
2019-03-18T04:27:46.757Z,7.35
2019-03-18T04:30:28.255Z,9.08
2019-03-18T04:33:10.053Z,13.75
2019-03-18T04:35:51.260Z,10.50
2019-03-18T04:38:32.867Z,8.30
2019-03-18T04:41:14.509Z,9.23
2019-03-18T04:43:56.391Z,8.15
2019-03-18T04:46:37.289Z,8.60
2019-03-18T04:49:18.689Z,9.28
2019-03-18T04:51:59.867Z,9.70
2019-03-18T04:54:41.388Z,7.58
2019-03-18T04:57:22.760Z,9.15
2019-03-18T05:00:04.454Z,11.78
2019-03-18T05:02:45.585Z,10.43
2019-03-18T05:05:27.332Z,10.03
2019-03-18T05:08:08.536Z,10.38
2019-03-18T05:10:50.147Z,9.70
2019-03-18T05:13:31.617Z,9.95
2019-03-18T05:16:12.729Z,11.75
2019-03-18T05:18:54.145Z,11.35
2019-03-18T05:21:35.335Z,10.72
2019-03-18T05:24:16.366Z,9.80
2019-03-18T05:26:57.886Z,11.40
2019-03-18T05:29:38.722Z,10.15
2019-03-18T05:32:19.732Z,11.35
2019-03-18T05:34:59.403Z,13.10
2019-03-18T05:37:48.016Z,12.05
2019-03-18T05:40:36.763Z,12.85
2019-03-18T05:46:17.518Z,15.05
2019-03-18T05:48:58.653Z,14.63
2019-03-18T05:51:39.953Z,15.45
2019-03-18T05:54:21.498Z,14.83
2019-03-18T05:57:02.406Z,13.90
2019-03-18T05:59:44.238Z,13.80
2019-03-18T06:02:25.460Z,14.55
2019-03-18T06:05:07.061Z,14.10
2019-03-18T06:07:48.672Z,14.65
2019-03-18T06:10:30.233Z,18.05
2019-03-18T06:13:11.751Z,16.00
2019-03-18T06:15:53.269Z,14.85
2019-03-18T06:18:34.456Z,17.80
2019-03-18T06:21:16.001Z,21.73
2019-03-18T06:23:57.632Z,14.93
2019-03-18T06:26:39.073Z,19.15
2019-03-18T06:29:19.819Z,16.95
2019-03-18T06:32:01.340Z,17.25
2019-03-18T06:34:43.114Z,16.20
2019-03-18T06:37:24.009Z,17.25
2019-03-18T06:40:05.630Z,18.98
2019-03-18T06:42:47.006Z,15.13
2019-03-18T06:45:28.293Z,17.48
2019-03-18T06:48:09.510Z,17.15
2019-03-18T06:50:50.275Z,18.02
2019-03-18T06:53:31.871Z,17.42
2019-03-18T06:56:12.693Z,18.15
2019-03-18T06:58:54.245Z,16.52
2019-03-18T07:01:35.326Z,16.80
2019-03-18T07:04:16.833Z,17.23
2019-03-18T07:06:58.177Z,19.40
2019-03-18T07:09:37.925Z,17.17
2019-03-18T07:15:25.411Z,17.40
2019-03-18T07:18:27.951Z,15.90
2019-03-18T07:21:04.339Z,19.15
2019-03-18T07:29:57.258Z,20.88
2019-03-18T07:35:45.375Z,19.95
2019-03-18T07:47:15.866Z,17.40
2019-03-18T07:49:56.971Z,24.52
2019-03-18T07:52:38.620Z,20.02
2019-03-18T07:55:18.360Z,18.45
2019-03-18T08:01:16.484Z,19.27
2019-03-18T08:04:05.080Z,20.55
2019-03-18T08:06:53.743Z,19.10
2019-03-18T08:09:42.628Z,18.65
2019-03-18T08:12:31.674Z,13.88
2019-03-18T08:15:34.341Z,16.17
2019-03-18T08:18:10.876Z,13.25
2019-03-18T08:21:13.723Z,15.43
2019-03-18T08:32:35.852Z,16.48
2019-03-18T08:38:33.720Z,17.85
2019-03-18T08:41:22.381Z,19.10
2019-03-18T08:44:25.981Z,13.22
2019-03-18T08:46:54.219Z,17.05
2019-03-18T08:49:35.671Z,16.67
2019-03-18T08:52:17.124Z,14.70
2019-03-18T08:54:58.927Z,11.53
2019-03-18T08:57:39.905Z,12.80
2019-03-18T09:00:21.590Z,17.10
2019-03-18T09:03:02.649Z,13.90
2019-03-18T09:05:43.481Z,14.00
2019-03-18T09:08:26.490Z,16.97
2019-03-18T09:11:07.621Z,10.23
2019-03-18T09:13:49.004Z,16.37
2019-03-18T09:16:30.331Z,13.30
2019-03-18T09:19:11.804Z,13.05
2019-03-18T09:21:53.398Z,14.47
2019-03-18T09:24:34.844Z,14.38
2019-03-18T09:27:15.662Z,21.15
2019-03-18T09:29:56.509Z,12.53
2019-03-18T09:32:38.188Z,11.57
2019-03-18T09:35:19.802Z,13.35
2019-03-18T09:38:01.287Z,17.35
2019-03-18T09:40:42.762Z,17.40
2019-03-18T09:43:24.325Z,18.57
2019-03-18T09:46:05.260Z,11.80
2019-03-18T09:48:46.747Z,15.65
2019-03-18T09:51:28.225Z,11.97
2019-03-18T09:54:09.863Z,14.73
2019-03-18T10:00:12.155Z,11.70
2019-03-18T10:02:52.499Z,11.40
2019-03-18T10:05:33.960Z,8.40
2019-03-18T10:08:15.256Z,13.05
2019-03-18T10:10:56.794Z,11.48
2019-03-18T10:13:37.880Z,17.40
2019-03-18T10:16:18.698Z,11.33
2019-03-18T10:19:00.074Z,19.25
2019-03-18T10:21:41.665Z,15.23
2019-03-18T10:24:23.093Z,11.93
2019-03-18T10:27:04.684Z,16.67
2019-03-18T10:29:45.734Z,14.47
2019-03-18T10:32:27.256Z,15.40
2019-03-18T10:35:08.696Z,15.03
2019-03-18T10:37:50.178Z,6.15
2019-03-18T10:40:31.804Z,14.40
2019-03-18T10:43:13.185Z,18.05
2019-03-18T10:45:53.988Z,10.25
2019-03-18T10:48:35.089Z,14.25
2019-03-18T10:51:15.844Z,15.63
2019-03-18T10:53:57.521Z,10.50
2019-03-18T10:56:41.128Z,14.07
2019-03-18T10:59:21.531Z,8.50
2019-03-18T11:02:02.247Z,10.38
2019-03-18T11:04:43.455Z,11.45
2019-03-18T11:07:24.925Z,16.17
2019-03-18T11:10:06.552Z,10.30
2019-03-18T11:12:47.872Z,12.20
2019-03-18T11:15:28.704Z,12.68
2019-03-18T11:18:09.323Z,12.07
2019-03-18T11:20:50.537Z,11.00
2019-03-18T11:23:32.139Z,9.73
2019-03-18T11:26:12.169Z,11.88
2019-03-18T11:41:10.812Z,10.05
2019-03-18T11:43:47.778Z,8.58
2019-03-18T11:46:30.194Z,8.20
2019-03-18T11:49:11.577Z,15.80
2019-03-18T11:51:53.407Z,14.85
2019-03-18T11:54:34.930Z,10.30
2019-03-18T11:57:16.700Z,12.03
2019-03-18T11:59:56.377Z,9.63
2019-03-18T12:02:45.575Z,12.40
2019-03-18T12:08:43.334Z,8.73
2019-03-18T12:11:32.126Z,7.42
2019-03-18T12:17:16.185Z,9.58
2019-03-18T12:20:05.145Z,14.45
2019-03-18T12:22:54.063Z,5.58
2019-03-18T12:25:42.663Z,9.10
2019-03-18T12:28:31.884Z,6.22
2019-03-18T12:31:20.469Z,7.05
2019-03-18T12:34:09.147Z,8.03
2019-03-18T12:39:57.354Z,7.25
2019-03-18T12:45:41.648Z,9.10
2019-03-18T12:48:24.851Z,10.70
2019-03-18T12:51:06.121Z,8.90
2019-03-18T12:53:47.712Z,7.37
2019-03-18T12:56:29.189Z,9.70
2019-03-18T12:59:10.927Z,10.48
2019-03-18T13:01:52.036Z,13.38
2019-03-18T13:04:33.979Z,7.50
2019-03-18T13:07:33.793Z,10.28
2019-03-18T13:10:12.601Z,12.20
2019-03-18T13:13:01.433Z,8.75
2019-03-18T13:24:46.184Z,8.15
2019-03-18T13:27:35.042Z,13.28
2019-03-18T13:30:23.746Z,6.72
2019-03-18T13:42:15.643Z,8.88
2019-03-18T13:45:04.441Z,10.78
2019-03-18T13:47:45.773Z,6.03
2019-03-18T13:50:25.504Z,9.55
2019-03-18T13:53:14.208Z,7.33
2019-03-18T14:02:11.284Z,5.72
2019-03-18T14:05:13.917Z,19.35
2019-03-18T14:08:00.127Z,7.10
2019-03-18T14:14:03.903Z,8.40
2019-03-18T14:16:40.344Z,6.78
2019-03-18T14:22:28.168Z,9.65
2019-03-18T14:28:26.240Z,5.00
2019-03-18T14:31:14.882Z,7.25
2019-03-18T14:34:17.450Z,7.28
2019-03-18T14:36:54.527Z,13.78
2019-03-18T14:45:33.851Z,10.30
2019-03-18T14:48:15.110Z,8.58
2019-03-18T14:50:55.834Z,7.70
2019-03-18T14:53:36.829Z,14.83
2019-03-18T14:56:17.692Z,12.95
2019-03-18T14:58:57.351Z,6.03
2019-03-18T15:01:45.935Z,7.17
2019-03-18T15:04:34.659Z,8.48
2019-03-18T15:07:23.379Z,10.32
2019-03-18T15:10:14.000Z,7.97
2019-03-18T15:13:02.951Z,3.95
2019-03-18T15:15:51.645Z,4.67
2019-03-18T15:18:40.486Z,8.18
2019-03-18T15:21:29.111Z,8.35
2019-03-18T15:24:18.043Z,3.52
2019-03-18T15:27:07.007Z,7.17
2019-03-18T15:30:07.797Z,5.83
2019-03-18T15:32:46.837Z,9.28
2019-03-18T15:35:47.164Z,5.95
2019-03-18T15:38:25.887Z,6.45
2019-03-18T15:41:14.461Z,4.45
2019-03-18T15:47:02.116Z,8.95
2019-03-18T15:49:50.820Z,7.80
2019-03-18T16:04:20.955Z,9.80
2019-03-18T16:07:09.681Z,10.25
2019-03-18T16:09:58.343Z,15.35
2019-03-18T16:12:58.663Z,6.83
2019-03-18T16:15:51.318Z,8.05
2019-03-18T16:18:27.640Z,10.95
2019-03-18T16:21:16.632Z,8.00
2019-03-18T16:24:05.652Z,6.00
2019-03-18T16:26:54.345Z,8.33
2019-03-18T16:32:52.172Z,8.08
2019-03-18T16:35:40.895Z,9.75
2019-03-18T16:38:29.471Z,4.03
2019-03-18T16:41:18.122Z,4.75
2019-03-18T16:44:20.795Z,13.70
2019-03-18T16:46:49.529Z,5.37
2019-03-18T16:49:30.832Z,10.93
2019-03-18T16:52:12.530Z,6.62
2019-03-18T16:54:53.961Z,7.53
2019-03-18T16:57:35.564Z,9.93
2019-03-18T17:00:16.936Z,8.25
2019-03-18T17:02:58.532Z,8.53
2019-03-18T17:05:39.819Z,8.20
2019-03-18T17:08:21.139Z,6.70
2019-03-18T17:11:01.312Z,8.65
2019-03-18T17:13:53.432Z,9.40
2019-03-18T17:22:50.138Z,13.62
2019-03-18T17:25:36.446Z,15.13
2019-03-18T17:31:20.272Z,5.55
2019-03-18T17:34:08.952Z,7.60
2019-03-18T17:36:49.843Z,10.68
2019-03-18T17:39:31.714Z,5.40
2019-03-18T17:42:12.867Z,3.35
2019-03-18T17:44:54.459Z,4.70
2019-03-18T17:47:34.463Z,7.15
2019-03-18T17:50:23.091Z,4.97
2019-03-18T17:53:12.298Z,13.75
2019-03-18T17:56:01.032Z,6.72
2019-03-18T18:01:48.365Z,6.28
2019-03-18T18:04:36.955Z,4.42
2019-03-18T18:10:55.566Z,11.25
2019-03-18T18:13:44.495Z,20.92
2019-03-18T18:16:33.249Z,9.75
2019-03-18T18:19:22.322Z,8.73
2019-03-18T18:22:11.006Z,11.45
2019-03-18T18:24:59.687Z,7.72
2019-03-18T18:27:48.193Z,8.13
2019-03-18T18:30:37.104Z,15.95
2019-03-18T18:39:20.578Z,8.40
2019-03-18T18:42:01.860Z,5.15
2019-03-18T18:44:43.372Z,8.78
2019-03-18T18:47:24.995Z,8.35
2019-03-18T18:50:06.079Z,7.62
2019-03-18T18:52:47.403Z,4.15
2019-03-18T18:55:28.936Z,7.47
2019-03-18T18:58:10.452Z,9.13
2019-03-18T19:00:51.968Z,6.78
2019-03-18T19:03:33.091Z,7.60
2019-03-18T19:06:14.421Z,12.15
2019-03-18T19:08:55.372Z,4.65
2019-03-18T19:11:37.036Z,7.03
2019-03-18T19:14:18.514Z,8.78
2019-03-18T19:17:00.481Z,8.18
2019-03-18T19:19:41.856Z,14.03
2019-03-18T19:22:23.748Z,6.03
2019-03-18T19:25:05.008Z,6.00
2019-03-18T19:27:46.491Z,12.90
2019-03-18T19:30:28.290Z,6.30
2019-03-18T19:33:09.747Z,11.60
2019-03-18T19:35:51.141Z,8.68
2019-03-18T19:38:32.080Z,9.58
2019-03-18T19:41:13.124Z,7.03
2019-03-18T19:43:54.343Z,11.97
2019-03-18T19:46:35.869Z,5.75
2019-03-18T19:49:16.761Z,10.80
2019-03-18T19:51:57.917Z,9.23
2019-03-18T19:54:39.519Z,5.53
2019-03-18T19:57:20.760Z,8.10
2019-03-18T20:00:02.334Z,9.83
2019-03-18T20:02:43.493Z,7.45
2019-03-18T20:05:25.344Z,7.05
2019-03-18T20:11:14.960Z,9.23
2019-03-18T20:13:56.432Z,9.23
2019-03-18T20:16:37.684Z,6.03
2019-03-18T20:19:19.096Z,11.40
2019-03-18T20:21:59.899Z,5.90
2019-03-18T20:24:41.582Z,9.40
2019-03-18T20:27:22.853Z,5.58
2019-03-18T20:30:04.585Z,8.10
2019-03-18T20:32:45.957Z,10.03
2019-03-18T20:35:27.091Z,11.00
2019-03-18T20:38:08.140Z,6.05
2019-03-18T20:40:49.679Z,8.43
2019-03-18T20:43:31.017Z,8.78
2019-03-18T20:46:10.742Z,8.58
2019-03-18T20:49:11.067Z,9.58
2019-03-18T20:51:50.263Z,12.78
2019-03-18T20:54:41.458Z,8.58
2019-03-18T21:00:25.456Z,6.72
2019-03-18T21:03:26.234Z,6.83
2019-03-18T21:06:04.791Z,12.55
2019-03-18T21:08:53.409Z,9.43
2019-03-18T21:17:39.648Z,9.95
2019-03-18T21:20:20.975Z,13.40
2019-03-18T21:23:02.460Z,4.97
2019-03-18T21:25:43.731Z,7.67
2019-03-18T21:28:23.741Z,11.63
2019-03-18T21:34:32.565Z,6.50
2019-03-18T21:43:18.744Z,9.68
2019-03-18T21:46:21.819Z,6.55
2019-03-18T21:48:58.277Z,12.45
2019-03-18T21:51:47.055Z,16.20
2019-03-18T21:57:45.187Z,7.00
2019-03-18T22:00:36.065Z,14.38
2019-03-18T22:03:12.562Z,8.83
2019-03-18T22:09:00.000Z,10.05
2019-03-18T22:11:48.807Z,7.72
2019-03-18T22:17:29.728Z,14.00
2019-03-18T22:20:11.615Z,6.92
2019-03-18T22:22:52.699Z,5.75
2019-03-18T22:25:34.800Z,8.83
2019-03-18T22:28:16.748Z,6.97
2019-03-18T22:30:58.488Z,11.33
2019-03-18T22:33:40.625Z,12.73
2019-03-18T22:36:22.586Z,17.23
2019-03-18T22:39:04.293Z,7.17
2019-03-18T22:41:45.194Z,17.35
2019-03-18T22:44:26.627Z,6.40
2019-03-18T22:47:08.117Z,8.25
2019-03-18T22:49:51.169Z,5.50
2019-03-18T22:52:32.330Z,10.75
2019-03-18T22:55:13.720Z,8.75
2019-03-18T22:57:55.418Z,10.68
2019-03-18T23:00:55.859Z,13.88
2019-03-18T23:03:37.348Z,15.83
2019-03-18T23:06:18.966Z,9.00
2019-03-18T23:09:00.669Z,7.60
2019-03-18T23:11:42.363Z,11.10
2019-03-18T23:14:24.040Z,12.18
2019-03-18T23:17:05.411Z,14.30
2019-03-18T23:19:46.526Z,11.93
2019-03-18T23:22:28.320Z,8.95
2019-03-18T23:25:09.529Z,9.80
2019-03-18T23:27:51.303Z,8.88
2019-03-18T23:30:32.753Z,9.55
2019-03-18T23:33:14.824Z,11.65
2019-03-18T23:35:56.163Z,10.40
2019-03-18T23:38:37.543Z,6.87
2019-03-18T23:41:17.162Z,12.10
2019-03-18T23:44:17.508Z,10.30
2019-03-18T23:46:56.040Z,8.48
2019-03-18T23:55:39.916Z,6.67
2019-03-18T23:58:21.331Z,16.90
